createdAt,value
2022-11-04T12:36:29.567Z,93749.63
2022-11-04T12:43:03.519Z,93774.47
2022-11-04T12:45:29.947Z,93779.53
2022-11-04T12:47:56.536Z,93793.44
2022-11-04T12:50:23.251Z,93791.75
2022-11-04T12:52:49.774Z,93805.09
2022-11-04T12:55:16.299Z,93804.22
2022-11-04T12:57:43.047Z,93800.75
2022-11-04T13:00:09.810Z,93802.44
2022-11-04T13:02:36.715Z,93811.28
2022-11-04T13:05:03.580Z,93808.00
2022-11-04T13:07:30.311Z,93812.28
2022-11-04T13:09:56.721Z,93820.25
2022-11-04T13:12:23.471Z,93821.63
2022-11-04T13:14:50.210Z,93815.16
2022-11-04T13:17:16.961Z,93820.09
2022-11-04T13:19:43.693Z,93817.22
2022-11-04T13:22:10.189Z,93816.31
2022-11-04T13:24:36.971Z,93825.41
2022-11-04T13:27:03.763Z,93825.50
2022-11-04T13:29:30.565Z,93829.59
2022-11-04T13:31:57.063Z,93825.84
2022-11-04T13:34:23.642Z,93831.75
2022-11-04T13:36:50.161Z,93827.53
2022-11-04T13:39:16.700Z,93834.19
2022-11-04T13:41:43.460Z,93844.03
2022-11-04T13:44:09.889Z,93846.88
2022-11-04T13:46:36.325Z,93844.56
2022-11-04T13:49:03.124Z,93852.69
2022-11-04T13:51:29.894Z,93860.38
2022-11-04T13:53:56.444Z,93858.69
2022-11-04T13:56:32.720Z,93864.16
2022-11-04T13:59:00.626Z,93863.75
2022-11-04T14:01:27.296Z,93875.41
2022-11-04T14:03:53.854Z,93870.78
2022-11-04T14:06:23.250Z,93876.69
2022-11-04T14:19:46.301Z,93894.28
2022-11-04T14:22:14.935Z,93892.41
2022-11-04T14:24:41.436Z,93896.44
2022-11-04T14:27:07.842Z,93899.63
2022-11-04T14:29:34.275Z,93904.06
2022-11-04T14:32:00.751Z,93904.69
2022-11-04T14:34:27.523Z,93911.75
2022-11-04T14:36:54.052Z,93916.69
2022-11-04T14:39:20.591Z,93920.00
2022-11-04T14:41:49.762Z,93925.94
2022-11-04T15:48:59.888Z,93994.06
2022-11-04T15:51:26.410Z,93996.25
2022-11-04T15:53:52.962Z,93997.44
2022-11-04T15:56:19.715Z,94006.41
2022-11-04T15:58:46.430Z,94013.38
2022-11-04T16:01:12.977Z,94016.41
2022-11-04T16:03:39.813Z,94017.16
2022-11-04T16:06:06.734Z,94018.94
2022-11-04T16:08:33.476Z,94025.22
2022-11-04T16:11:00.071Z,94017.53
2022-11-04T16:13:26.643Z,94020.97
2022-11-04T16:15:53.196Z,94015.31
2022-11-04T16:18:20.135Z,94028.09
2022-11-04T16:20:46.755Z,94029.34
2022-11-04T16:23:13.351Z,94041.53
2022-11-04T16:25:40.083Z,94039.53
2022-11-04T16:28:06.589Z,94044.97
2022-11-04T16:30:33.379Z,94052.22
2022-11-04T16:33:00.193Z,94047.25
2022-11-04T16:35:26.641Z,94056.56
2022-11-04T16:37:53.341Z,94055.13
2022-11-04T16:40:19.860Z,94050.41
2022-11-04T16:42:47.701Z,94055.88
2022-11-04T16:56:36.496Z,94083.06
2022-11-04T16:59:03.363Z,94082.25
2022-11-04T17:01:30.286Z,94085.41
2022-11-04T17:03:56.884Z,94093.69
2022-11-04T17:06:23.410Z,94098.13
2022-11-04T17:08:49.932Z,94098.66
2022-11-04T17:11:16.479Z,94107.00
2022-11-04T17:32:48.551Z,94142.41
2022-11-04T17:35:15.077Z,94142.16
2022-11-04T17:37:42.920Z,94139.72
